createdAt,value
2019-02-09T00:00:49.683Z,0.00
2019-02-09T00:01:49.762Z,0.00
2019-02-09T00:02:49.732Z,0.00
2019-02-09T00:03:49.656Z,0.00
2019-02-09T00:04:49.669Z,0.00
2019-02-09T00:05:49.629Z,0.00
2019-02-09T00:06:49.613Z,0.00
2019-02-09T00:07:49.677Z,0.00
2019-02-09T00:08:49.586Z,0.00
2019-02-09T00:09:49.588Z,0.00
2019-02-09T00:10:49.564Z,0.00
2019-02-09T00:11:49.581Z,0.00
2019-02-09T00:12:49.560Z,0.00
2019-02-09T00:13:49.632Z,0.00
2019-02-09T00:14:49.536Z,0.00
2019-02-09T00:15:49.520Z,0.00
2019-02-09T00:16:49.500Z,0.00
2019-02-09T00:17:49.593Z,0.00
2019-02-09T00:18:49.528Z,0.00
2019-02-09T00:19:49.470Z,0.00
2019-02-09T00:20:49.486Z,0.00
2019-02-09T00:21:49.461Z,0.00
2019-02-09T00:22:49.440Z,0.00
2019-02-09T00:23:49.432Z,0.00
2019-02-09T00:24:49.457Z,0.00
2019-02-09T00:25:49.396Z,0.00
2019-02-09T00:26:49.382Z,0.00
2019-02-09T00:27:49.475Z,0.00
2019-02-09T00:28:49.399Z,0.00
2019-02-09T00:29:49.393Z,0.00
2019-02-09T00:30:49.341Z,0.00
2019-02-09T00:31:49.372Z,0.00
2019-02-09T00:32:49.341Z,0.00
2019-02-09T00:33:49.324Z,0.00
2019-02-09T00:34:49.325Z,0.00
2019-02-09T00:35:49.291Z,0.00
2019-02-09T00:36:49.280Z,0.00
2019-02-09T00:37:49.301Z,0.00
2019-02-09T00:38:49.289Z,0.00
2019-02-09T00:39:49.247Z,0.00
2019-02-09T00:40:49.264Z,0.00
2019-02-09T00:41:49.222Z,0.00
2019-02-09T00:42:49.206Z,0.00
2019-02-09T00:43:49.226Z,0.00
2019-02-09T00:44:49.199Z,0.00
2019-02-09T00:45:49.204Z,0.00
2019-02-09T00:46:49.175Z,0.00
2019-02-09T00:47:49.201Z,0.00
2019-02-09T00:48:49.196Z,0.00
2019-02-09T00:49:49.136Z,0.00
2019-02-09T00:50:49.125Z,0.00
2019-02-09T00:51:49.139Z,0.00
2019-02-09T00:52:49.317Z,0.00
2019-02-09T00:53:49.158Z,0.00
2019-02-09T00:54:49.678Z,0.00
2019-02-09T00:55:49.069Z,0.00
2019-02-09T00:56:49.071Z,0.00
2019-02-09T00:57:49.162Z,0.00
2019-02-09T00:58:49.029Z,0.00
2019-02-09T00:59:53.959Z,0.00
2019-02-09T01:00:50.206Z,0.00
2019-02-09T01:01:49.016Z,0.00
2019-02-09T01:02:48.986Z,0.00
2019-02-09T01:03:49.007Z,0.00
2019-02-09T01:04:49.043Z,0.00
2019-02-09T01:05:48.949Z,0.00
2019-02-09T01:06:48.961Z,0.00
2019-02-09T01:07:48.972Z,0.00
2019-02-09T01:08:48.963Z,0.00
2019-02-09T01:09:48.984Z,0.00
2019-02-09T01:10:48.954Z,0.00
2019-02-09T01:11:48.940Z,0.00
2019-02-09T01:12:49.058Z,0.00
2019-02-09T01:13:49.049Z,0.00
2019-02-09T01:14:48.892Z,0.00
2019-02-09T01:15:48.936Z,0.00
2019-02-09T01:16:48.850Z,0.00
2019-02-09T01:17:48.879Z,0.00
2019-02-09T01:18:48.824Z,0.00
2019-02-09T01:19:48.805Z,0.00
2019-02-09T01:20:48.838Z,0.00
2019-02-09T01:21:48.782Z,0.00
2019-02-09T01:22:48.807Z,0.00
2019-02-09T01:23:48.767Z,0.00
2019-02-09T01:24:48.742Z,0.00
2019-02-09T01:25:48.774Z,0.00
2019-02-09T01:26:48.773Z,0.00
2019-02-09T01:27:48.722Z,0.00
2019-02-09T01:28:48.696Z,0.00
2019-02-09T01:29:48.710Z,0.00
2019-02-09T01:30:48.726Z,0.00
2019-02-09T01:31:49.414Z,0.00
2019-02-09T01:32:48.687Z,0.00
2019-02-09T01:33:48.646Z,0.00
2019-02-09T01:34:48.706Z,0.00
2019-02-09T01:35:48.625Z,0.00
2019-02-09T01:36:48.617Z,0.00
2019-02-09T01:37:48.609Z,0.00
2019-02-09T01:38:48.589Z,0.00
2019-02-09T01:39:48.661Z,0.00
2019-02-09T01:40:48.589Z,0.00
2019-02-09T01:41:48.819Z,0.00
2019-02-09T01:42:48.543Z,0.00
2019-02-09T01:43:48.732Z,0.00
2019-02-09T01:44:48.517Z,0.00
2019-02-09T01:45:48.515Z,0.00
2019-02-09T01:46:48.547Z,0.00
2019-02-09T01:47:48.513Z,0.00
2019-02-09T01:48:48.517Z,0.00
2019-02-09T01:49:48.485Z,0.00
2019-02-09T01:50:48.521Z,0.00
2019-02-09T01:51:48.571Z,0.00
2019-02-09T01:52:48.430Z,0.00
2019-02-09T01:53:49.335Z,0.00
2019-02-09T01:54:49.275Z,0.00
2019-02-09T01:55:48.398Z,0.00
2019-02-09T01:56:48.400Z,0.00
2019-02-09T01:57:48.376Z,0.00
2019-02-09T01:58:48.515Z,0.00
2019-02-09T01:59:48.369Z,0.00
2019-02-09T02:00:48.396Z,0.00
2019-02-09T02:01:48.364Z,0.00
2019-02-09T02:02:48.320Z,0.00
2019-02-09T02:03:48.343Z,0.00
2019-02-09T02:04:48.305Z,0.00
2019-02-09T02:05:48.292Z,0.00
2019-02-09T02:06:48.279Z,0.00
2019-02-09T02:07:48.375Z,0.00
2019-02-09T02:08:48.246Z,0.00
2019-02-09T02:09:48.267Z,0.00
2019-02-09T02:10:48.231Z,0.00
2019-02-09T02:11:48.258Z,0.00
2019-02-09T02:12:48.209Z,0.00
2019-02-09T02:13:48.214Z,0.00
2019-02-09T02:14:48.223Z,0.00
2019-02-09T02:15:48.192Z,0.00
2019-02-09T02:16:48.164Z,0.00
2019-02-09T02:17:48.152Z,0.00
2019-02-09T02:18:48.148Z,0.00
2019-02-09T02:19:48.127Z,0.00
2019-02-09T02:20:48.141Z,0.00
2019-02-09T02:21:48.105Z,0.00
2019-02-09T02:22:48.148Z,0.00
2019-02-09T02:23:48.117Z,0.00
2019-02-09T02:24:48.094Z,0.00
2019-02-09T02:25:48.350Z,0.00
2019-02-09T02:26:48.166Z,0.00
2019-02-09T02:27:48.048Z,0.00
2019-02-09T02:28:48.030Z,0.00
2019-02-09T02:29:48.034Z,0.00
2019-02-09T02:30:48.024Z,0.00
2019-02-09T02:31:48.037Z,0.00
2019-02-09T02:32:48.027Z,0.00
2019-02-09T02:33:47.976Z,0.00
2019-02-09T02:34:48.814Z,0.00
2019-02-09T02:35:47.953Z,0.00
2019-02-09T02:36:47.945Z,0.00
2019-02-09T02:37:47.923Z,0.00
2019-02-09T02:38:47.969Z,0.00
2019-02-09T02:39:47.914Z,0.00
2019-02-09T02:40:47.957Z,0.00
2019-02-09T02:41:47.900Z,0.00
2019-02-09T02:42:47.874Z,0.00
2019-02-09T02:43:47.868Z,0.00
2019-02-09T02:44:47.915Z,0.00
2019-02-09T02:45:47.869Z,0.00
2019-02-09T02:46:47.845Z,0.00
2019-02-09T02:47:47.835Z,0.00
2019-02-09T02:48:47.820Z,0.00
2019-02-09T02:49:47.863Z,0.00
2019-02-09T02:50:47.817Z,0.00
2019-02-09T02:51:48.180Z,0.00
2019-02-09T02:52:47.776Z,0.00
2019-02-09T02:53:47.750Z,0.00
2019-02-09T02:54:47.739Z,0.00
2019-02-09T02:55:47.730Z,0.00
2019-02-09T02:56:47.768Z,0.00
2019-02-09T02:57:48.664Z,0.00
2019-02-09T02:58:47.713Z,0.00
2019-02-09T02:59:47.684Z,0.00
2019-02-09T03:00:47.670Z,0.00
2019-02-09T03:01:47.683Z,0.00
2019-02-09T03:02:47.662Z,0.00
2019-02-09T03:03:47.655Z,0.00
2019-02-09T03:04:47.689Z,0.00
2019-02-09T03:05:47.906Z,0.00
2019-02-09T03:06:47.956Z,0.00
2019-02-09T03:07:47.608Z,0.00
2019-02-09T03:08:48.256Z,0.00
2019-02-09T03:09:47.581Z,0.00
2019-02-09T03:10:47.573Z,0.00
2019-02-09T03:11:47.577Z,0.00
2019-02-09T03:12:47.545Z,0.00
2019-02-09T03:13:47.561Z,0.00
2019-02-09T03:14:47.522Z,0.00
2019-02-09T03:15:47.515Z,0.00
2019-02-09T03:16:47.502Z,0.00
2019-02-09T03:17:47.531Z,0.00
2019-02-09T03:18:47.494Z,0.00
2019-02-09T03:19:47.472Z,0.00
2019-02-09T03:20:47.469Z,0.00
2019-02-09T03:21:47.448Z,0.00
2019-02-09T03:22:47.533Z,0.00
2019-02-09T03:23:47.461Z,0.00
2019-02-09T03:24:47.421Z,0.00
2019-02-09T03:25:47.404Z,0.00
2019-02-09T03:26:47.380Z,0.00
2019-02-09T03:27:47.376Z,0.00
2019-02-09T03:28:47.365Z,0.00
2019-02-09T03:29:47.471Z,0.00
2019-02-09T03:30:48.810Z,0.00
2019-02-09T03:31:49.348Z,0.00
2019-02-09T03:32:48.201Z,0.00
2019-02-09T03:33:47.357Z,0.00
2019-02-09T03:34:47.366Z,0.00
2019-02-09T03:35:47.318Z,0.00
2019-02-09T03:36:47.388Z,0.00
2019-02-09T03:37:47.358Z,0.00
2019-02-09T03:38:47.267Z,0.00
2019-02-09T03:39:48.258Z,0.00
2019-02-09T03:40:47.268Z,0.00
2019-02-09T03:41:47.223Z,0.00
2019-02-09T03:42:47.356Z,0.00
2019-02-09T03:43:47.261Z,0.00
2019-02-09T03:44:47.276Z,0.00
2019-02-09T03:45:47.216Z,0.00
2019-02-09T03:48:01.015Z,0.00
2019-02-09T03:48:59.326Z,0.00
2019-02-09T03:49:59.935Z,0.00
2019-02-09T03:50:59.205Z,0.00
2019-02-09T03:52:00.754Z,0.00
2019-02-09T03:54:22.204Z,0.00
2019-02-09T03:55:20.986Z,0.00
2019-02-09T03:56:20.893Z,0.00
2019-02-09T03:57:21.046Z,0.00
2019-02-09T03:58:20.785Z,0.00
2019-02-09T03:59:20.774Z,0.00
2019-02-09T04:00:20.805Z,0.00
2019-02-09T04:01:20.725Z,0.00
2019-02-09T04:02:20.748Z,0.00
2019-02-09T04:03:20.714Z,0.00
2019-02-09T04:04:21.373Z,0.00
2019-02-09T04:05:20.723Z,0.00
2019-02-09T04:06:20.673Z,0.00
2019-02-09T04:07:20.684Z,0.00
2019-02-09T04:08:20.674Z,0.00
2019-02-09T04:09:20.639Z,0.00
2019-02-09T04:10:20.655Z,0.00
2019-02-09T04:11:20.781Z,0.00
2019-02-09T04:12:20.732Z,0.00
2019-02-09T04:13:21.592Z,0.00
2019-02-09T04:14:20.593Z,0.00
2019-02-09T04:15:20.591Z,0.00
2019-02-09T04:16:20.642Z,0.00
2019-02-09T04:17:20.599Z,0.00
2019-02-09T04:18:20.707Z,0.00
2019-02-09T04:19:20.544Z,0.00
2019-02-09T04:20:20.620Z,0.00
2019-02-09T04:21:20.612Z,0.00
2019-02-09T04:22:20.499Z,0.00
2019-02-09T04:23:20.550Z,0.00
2019-02-09T04:24:20.468Z,0.00
2019-02-09T04:25:20.492Z,0.00
2019-02-09T04:26:20.504Z,0.00
2019-02-09T04:27:22.376Z,0.00
2019-02-09T04:28:20.432Z,0.00
2019-02-09T04:29:21.117Z,0.00
2019-02-09T04:30:20.439Z,0.00
2019-02-09T04:31:20.399Z,0.00
2019-02-09T04:32:20.512Z,0.00
2019-02-09T04:33:20.422Z,0.00
2019-02-09T04:34:20.447Z,0.00
2019-02-09T04:35:20.359Z,0.00
2019-02-09T04:36:20.352Z,0.00
2019-02-09T04:37:20.416Z,0.00
2019-02-09T04:38:20.342Z,0.00
2019-02-09T04:39:21.850Z,0.00
2019-02-09T04:40:20.329Z,0.00
2019-02-09T04:41:20.284Z,0.00
2019-02-09T04:42:29.353Z,0.00
2019-02-09T04:43:20.635Z,0.00
2019-02-09T04:44:20.376Z,0.00
2019-02-09T04:45:20.516Z,0.00
2019-02-09T04:46:20.473Z,0.00
2019-02-09T04:47:20.547Z,0.00
2019-02-09T04:49:48.599Z,0.00
2019-02-09T04:50:48.155Z,0.00
2019-02-09T04:51:48.386Z,0.00
2019-02-09T04:52:48.099Z,0.00
2019-02-09T04:55:18.257Z,0.00
2019-02-09T04:56:14.472Z,0.00
2019-02-09T04:57:16.404Z,0.00
2019-02-09T04:58:15.190Z,0.00
2019-02-09T04:59:14.170Z,0.00
2019-02-09T05:00:14.321Z,0.00
2019-02-09T05:01:14.407Z,0.00
2019-02-09T05:03:34.189Z,0.00
2019-02-09T05:04:34.118Z,0.00
2019-02-09T05:05:34.068Z,0.00
2019-02-09T05:06:34.013Z,0.00
2019-02-09T05:07:34.507Z,0.00
2019-02-09T05:08:33.773Z,0.00
2019-02-09T05:09:33.995Z,0.00
2019-02-09T05:10:33.790Z,0.00
2019-02-09T05:11:33.755Z,0.00
2019-02-09T05:12:34.012Z,0.00
2019-02-09T05:13:33.731Z,0.00
2019-02-09T05:14:33.827Z,0.00
2019-02-09T05:15:33.728Z,0.00
2019-02-09T05:16:33.715Z,0.00
2019-02-09T05:17:33.675Z,0.00
2019-02-09T05:18:34.540Z,0.00
2019-02-09T05:19:33.698Z,0.00
2019-02-09T05:20:33.812Z,0.00
2019-02-09T05:21:33.640Z,0.00
2019-02-09T05:22:33.708Z,0.00
2019-02-09T05:23:33.624Z,0.00
2019-02-09T05:24:33.723Z,0.00
2019-02-09T05:25:33.826Z,0.00
2019-02-09T05:26:33.626Z,0.00
2019-02-09T05:27:33.686Z,0.00
2019-02-09T05:28:33.566Z,0.00
2019-02-09T05:29:33.575Z,0.00
2019-02-09T05:30:33.576Z,0.00
2019-02-09T05:31:33.534Z,0.00
2019-02-09T05:32:33.531Z,0.00
2019-02-09T05:34:45.384Z,0.00
2019-02-09T05:35:44.328Z,0.00
2019-02-09T05:36:44.479Z,0.00
2019-02-09T05:37:44.308Z,0.00
2019-02-09T05:38:44.300Z,0.00
2019-02-09T05:39:44.186Z,0.00
2019-02-09T05:40:44.199Z,0.00
2019-02-09T05:41:44.271Z,0.00
2019-02-09T05:42:44.161Z,0.00
2019-02-09T05:43:44.141Z,0.00
2019-02-09T05:44:44.133Z,0.00
2019-02-09T05:45:44.286Z,0.00
2019-02-09T05:46:44.098Z,0.00
2019-02-09T05:47:44.095Z,0.00
2019-02-09T05:48:44.252Z,0.00
2019-02-09T05:49:44.136Z,0.00
2019-02-09T05:50:44.191Z,0.00
2019-02-09T05:51:44.068Z,0.00
2019-02-09T05:52:44.077Z,0.00
2019-02-09T05:53:44.124Z,0.00
2019-02-09T05:54:44.042Z,0.00
2019-02-09T05:55:44.152Z,0.00
2019-02-09T05:56:43.997Z,0.00
2019-02-09T05:57:44.000Z,0.00
2019-02-09T05:58:47.484Z,0.00
2019-02-09T05:59:44.125Z,0.00
2019-02-09T06:00:44.016Z,0.00
2019-02-09T06:01:44.407Z,0.00
2019-02-09T06:04:27.110Z,0.00
2019-02-09T06:05:26.684Z,0.00
2019-02-09T06:06:26.482Z,0.00
2019-02-09T06:07:26.617Z,0.00
2019-02-09T06:08:26.277Z,0.00
2019-02-09T06:09:26.238Z,0.00
2019-02-09T06:55:48.433Z,22.50
2019-02-09T07:17:35.216Z,95.62
2019-02-09T07:18:33.314Z,112.50
2019-02-09T07:19:33.422Z,101.25
2019-02-09T07:20:33.282Z,67.50
2019-02-09T07:21:33.689Z,33.75
2019-02-09T07:22:33.400Z,28.12
2019-02-09T07:23:33.305Z,22.50
2019-02-09T07:24:33.100Z,22.50
2019-02-09T07:25:33.138Z,39.38
2019-02-09T07:26:33.324Z,67.50
2019-02-09T07:27:33.107Z,78.75
2019-02-09T07:28:33.322Z,95.62
2019-02-09T07:29:33.058Z,123.75
2019-02-09T07:30:33.687Z,157.50
2019-02-09T07:31:33.005Z,168.75
2019-02-09T07:32:33.317Z,180.00
2019-02-09T07:33:33.849Z,191.25
2019-02-09T07:34:33.120Z,168.75
2019-02-09T07:35:33.038Z,174.38
2019-02-09T07:36:32.944Z,174.38
2019-02-09T07:37:33.107Z,168.75
2019-02-09T07:38:33.795Z,174.38
2019-02-09T07:39:33.236Z,202.50
2019-02-09T07:40:33.117Z,180.00
2019-02-09T07:42:44.596Z,123.75
2019-02-09T07:43:44.100Z,118.12
2019-02-09T07:44:44.247Z,118.12
2019-02-09T07:45:44.160Z,123.75
2019-02-09T07:48:13.382Z,135.00
2019-02-09T07:49:13.106Z,163.12
2019-02-09T07:50:13.027Z,191.25
2019-02-09T07:51:12.803Z,225.00
2019-02-09T07:52:13.482Z,225.00
2019-02-09T07:56:30.464Z,123.75
2019-02-09T07:57:30.224Z,180.00
2019-02-09T07:58:30.609Z,225.00
2019-02-09T07:59:31.117Z,191.25
2019-02-09T08:00:30.715Z,180.00
2019-02-09T08:01:31.382Z,163.12
2019-02-09T08:02:32.961Z,174.38
2019-02-09T08:03:30.044Z,185.62
2019-02-09T08:04:29.909Z,196.88
2019-02-09T08:05:29.864Z,208.12
2019-02-09T08:06:30.108Z,241.88
2019-02-09T08:09:37.582Z,196.88
2019-02-09T08:10:36.993Z,230.62
2019-02-09T08:11:37.041Z,247.50
2019-02-09T08:12:36.925Z,270.00
2019-02-09T08:13:36.755Z,337.50
2019-02-09T08:14:37.393Z,444.38
2019-02-09T08:15:36.889Z,798.75
2019-02-09T08:16:36.947Z,315.00
2019-02-09T08:19:02.420Z,922.50
2019-02-09T08:20:01.829Z,337.50
2019-02-09T08:22:14.175Z,1203.75
2019-02-09T08:23:13.810Z,849.38
2019-02-09T08:24:13.747Z,270.00
2019-02-09T08:25:13.763Z,326.25
2019-02-09T08:26:13.808Z,1383.75
2019-02-09T08:27:13.522Z,1355.62
2019-02-09T08:28:14.028Z,1316.25
2019-02-09T08:29:14.495Z,1288.12
2019-02-09T08:30:13.451Z,1248.75
2019-02-09T08:31:14.344Z,1170.00
2019-02-09T08:32:26.289Z,939.38
2019-02-09T08:33:13.951Z,382.50
2019-02-09T08:34:13.516Z,1051.88
2019-02-09T08:35:13.542Z,500.62
2019-02-09T08:36:13.622Z,1068.75
2019-02-09T08:37:25.822Z,1333.12
2019-02-09T08:38:13.524Z,1530.00
2019-02-09T08:39:13.391Z,1423.12
2019-02-09T08:40:14.970Z,1096.88
2019-02-09T08:41:13.333Z,1535.62
2019-02-09T08:42:13.317Z,1378.12
2019-02-09T08:43:13.299Z,984.38
2019-02-09T08:44:27.878Z,1614.38
2019-02-09T08:45:13.295Z,1625.62
2019-02-09T08:46:13.252Z,1614.38
2019-02-09T08:47:13.304Z,1575.00
2019-02-09T08:48:17.786Z,1428.75
2019-02-09T08:50:30.241Z,826.88
2019-02-09T08:51:29.940Z,500.62
2019-02-09T08:52:29.921Z,478.12
2019-02-09T08:53:29.779Z,466.88
2019-02-09T08:55:49.444Z,1220.62
2019-02-09T08:56:48.210Z,579.38
2019-02-09T08:57:48.289Z,1158.75
2019-02-09T08:58:48.165Z,1136.25
2019-02-09T08:59:48.032Z,1108.12
2019-02-09T09:00:48.123Z,1130.62
2019-02-09T09:01:48.065Z,1136.25
2019-02-09T09:02:48.015Z,1147.50
2019-02-09T09:03:48.019Z,1147.50
2019-02-09T09:04:47.980Z,1141.88
2019-02-09T09:05:48.042Z,1170.00
2019-02-09T09:06:48.606Z,1226.25
2019-02-09T09:07:47.954Z,1102.50
2019-02-09T09:12:04.670Z,1170.00
2019-02-09T09:13:05.065Z,1203.75
2019-02-09T09:14:06.102Z,1203.75
2019-02-09T09:15:04.479Z,1215.00
2019-02-09T09:16:05.088Z,1231.88
2019-02-09T09:17:04.086Z,1282.50
2019-02-09T09:18:06.728Z,1220.62
2019-02-09T09:19:05.332Z,1203.75
2019-02-09T09:20:04.081Z,776.25
2019-02-09T09:21:04.034Z,1276.88
2019-02-09T09:22:04.131Z,1338.75
2019-02-09T09:23:04.026Z,1321.88
2019-02-09T09:24:04.044Z,1361.25
2019-02-09T09:25:05.016Z,1310.62
2019-02-09T09:26:03.970Z,708.75
2019-02-09T09:27:03.960Z,1215.00
2019-02-09T09:28:03.993Z,866.25
2019-02-09T09:29:04.643Z,511.88
2019-02-09T09:30:04.721Z,545.62
2019-02-09T09:31:03.921Z,540.00
2019-02-09T09:32:03.907Z,455.62
2019-02-09T09:33:03.944Z,444.38
2019-02-09T09:34:03.905Z,427.50
2019-02-09T09:35:04.005Z,410.62
2019-02-09T09:36:06.790Z,416.25
2019-02-09T09:42:30.713Z,832.50
2019-02-09T09:43:31.260Z,877.50
2019-02-09T09:44:30.662Z,866.25
2019-02-09T09:45:30.549Z,815.62
2019-02-09T09:46:32.529Z,815.62
2019-02-09T09:47:30.621Z,731.25
2019-02-09T09:48:35.262Z,618.75
2019-02-09T09:49:30.447Z,585.00
2019-02-09T09:50:30.526Z,697.50
2019-02-09T09:51:30.789Z,838.12
2019-02-09T09:52:30.423Z,731.25
2019-02-09T10:13:55.453Z,630.00
2019-02-09T10:14:57.026Z,534.38
2019-02-09T10:30:16.700Z,601.88
2019-02-09T15:19:57.305Z,405.00
2019-02-09T15:20:56.697Z,455.62
2019-02-09T15:21:56.597Z,416.25
2019-02-09T15:22:56.709Z,421.88
2019-02-09T15:23:56.466Z,478.12
2019-02-09T15:24:56.426Z,472.50
2019-02-09T15:25:56.598Z,376.88
2019-02-09T15:26:57.401Z,399.38
